Time;durP1;ratioP1;P1;durP2;ratioP2;P2;SDS_P1;SDS_P2;PMS_P1;PMS_P2;Temp;Humidity;BMP_temperature;BMP_pressure;BME280_temperature;BME280_humidity;BME280_pressure;Samples;Min_cycle;Max_cycle;Signal;HPM_P1;HPM_P2
2022/06/29 04:19:07;;;;;;;4.28;1.95;;;20.40;66.30;;;;;;5331033;24;20068;-70
2022/06/29 04:21:32;;;;;;;3.75;1.52;;;20.30;66.30;;;;;;4736794;30;20057;-71
2022/06/29 04:23:58;;;;;;;2.55;1.35;;;20.30;66.30;;;;;;4737031;30;20067;-71
2022/06/29 04:26:24;;;;;;;3.92;1.83;;;20.30;66.20;;;;;;4736603;30;20465;-72
2022/06/29 04:28:50;;;;;;;4.75;1.80;;;20.30;66.30;;;;;;4736876;30;20052;-71
2022/06/29 04:31:16;;;;;;;2.75;1.38;;;20.30;66.30;;;;;;4735610;30;20063;-73
2022/06/29 04:33:41;;;;;;;4.65;1.50;;;20.30;66.20;;;;;;4735422;30;20060;-72
2022/06/29 04:36:07;;;;;;;3.20;1.60;;;20.30;66.10;;;;;;4737248;30;20052;-72
2022/06/29 04:38:33;;;;;;;3.97;1.60;;;20.30;66.20;;;;;;4736012;30;20377;-71
2022/06/29 04:40:59;;;;;;;5.57;2.25;;;20.30;66.30;;;;;;4736794;30;20052;-71
2022/06/29 04:43:27;;;;;;;2.28;1.50;;;20.30;66.20;;;;;;4736743;30;20067;-72
2022/06/29 04:48:38;;;;;;;2.63;1.55;;;20.30;66.20;;;;;;4736715;30;20060;-72
2022/06/29 04:51:04;;;;;;;5.35;2.20;;;20.40;66.20;;;;;;4736769;30;20492;-72
2022/06/29 04:53:30;;;;;;;1.95;1.55;;;20.30;66.10;;;;;;4736951;30;20075;-72
2022/06/29 04:55:55;;;;;;;2.33;1.65;;;20.30;66.10;;;;;;4736939;30;20064;-71
2022/06/29 04:58:21;;;;;;;2.75;1.73;;;20.30;66.10;;;;;;4736408;30;20460;-73
2022/06/29 05:00:47;;;;;;;4.00;1.77;;;20.30;66.10;;;;;;4737163;30;20389;-76
2022/06/29 05:03:13;;;;;;;5.28;1.85;;;20.20;66.10;;;;;;4736977;30;20052;-70
2022/06/29 05:05:39;;;;;;;3.92;1.70;;;20.20;66.20;;;;;;4736979;30;20075;-71
2022/06/29 05:08:05;;;;;;;3.63;1.75;;;20.30;66.50;;;;;;4736232;30;20067;-71
2022/06/29 05:10:31;;;;;;;9.85;2.08;;;20.30;66.40;;;;;;4736504;30;20048;-71
2022/06/29 05:12:57;;;;;;;3.53;1.80;;;20.30;66.40;;;;;;4738988;30;20060;-71
2022/06/29 05:15:23;;;;;;;4.40;2.00;;;20.30;66.30;;;;;;4740752;30;20057;-71
2022/06/29 05:17:48;;;;;;;5.75;2.15;;;20.30;66.40;;;;;;4740129;30;20045;-72
2022/06/29 05:20:14;;;;;;;2.85;1.90;;;20.30;66.40;;;;;;4758702;30;20126;-72
2022/06/29 05:22:40;;;;;;;4.22;2.05;;;20.30;66.40;;;;;;4775585;30;20055;-73
2022/06/29 05:25:07;;;;;;;4.30;2.00;;;20.30;66.50;;;;;;4775750;30;20060;-72
2022/06/29 05:27:33;;;;;;;9.75;2.13;;;20.30;66.40;;;;;;4775224;30;20447;-71
2022/06/29 05:29:58;;;;;;;4.72;1.80;;;20.30;66.40;;;;;;4775024;30;20055;-72
2022/06/29 05:32:24;;;;;;;9.82;2.25;;;20.30;66.50;;;;;;4775279;30;20044;-71
2022/06/29 05:34:50;;;;;;;6.63;1.77;;;20.30;66.50;;;;;;4775318;30;20101;-71
2022/06/29 05:37:17;;;;;;;5.55;1.80;;;20.30;66.70;;;;;;4775056;30;20130;-70
2022/06/29 05:39:44;;;;;;;6.00;2.35;;;20.40;66.70;;;;;;4757645;30;20048;-70
2022/06/29 05:42:10;;;;;;;7.18;2.15;;;20.40;66.90;;;;;;4756706;30;20100;-73
2022/06/29 05:44:36;;;;;;;14.75;2.17;;;20.40;66.80;;;;;;4757938;30;20056;-72
2022/06/29 05:47:03;;;;;;;3.33;1.55;;;20.40;66.90;;;;;;4757266;30;20075;-73
2022/06/29 05:49:29;;;;;;;5.82;2.05;;;20.40;66.90;;;;;;4773594;30;20071;-74
2022/06/29 05:51:54;;;;;;;8.27;1.70;;;20.50;66.80;;;;;;4775694;30;20051;-74
2022/06/29 05:54:20;;;;;;;4.80;1.80;;;20.50;66.80;;;;;;4774928;30;20422;-74
2022/06/29 05:56:46;;;;;;;11.60;1.77;;;20.50;67.30;;;;;;4774911;30;20095;-75
2022/06/29 05:59:11;;;;;;;11.77;2.17;;;20.50;66.90;;;;;;4774015;30;20055;-74
2022/06/29 06:01:37;;;;;;;7.60;1.83;;;20.50;66.80;;;;;;4774967;30;20047;-74
2022/06/29 06:04:03;;;;;;;8.40;2.00;;;20.60;66.70;;;;;;4774385;30;20043;-73
2022/06/29 06:06:29;;;;;;;7.38;2.10;;;20.60;66.80;;;;;;4774887;30;20139;-75
2022/06/29 06:08:54;;;;;;;6.10;2.60;;;20.60;66.70;;;;;;4774762;30;20062;-78
2022/06/29 06:11:20;;;;;;;7.22;2.40;;;20.60;64.50;;;;;;4774535;30;20071;-73
2022/06/29 06:13:46;;;;;;;3.90;1.80;;;20.60;64.80;;;;;;4774245;30;20051;-73
2022/06/29 06:16:11;;;;;;;4.47;1.77;;;20.50;65.00;;;;;;4774536;30;20147;-74
2022/06/29 06:18:37;;;;;;;4.80;1.75;;;20.50;64.70;;;;;;4774131;30;20059;-73
2022/06/29 06:21:03;;;;;;;2.58;1.63;;;20.50;64.90;;;;;;4774059;30;20064;-74
2022/06/29 06:23:28;;;;;;;3.50;1.95;;;20.60;65.10;;;;;;4773686;30;20059;-74
2022/06/29 06:25:54;;;;;;;6.68;1.98;;;20.60;65.20;;;;;;4774636;30;20055;-74
2022/06/29 06:28:20;;;;;;;4.28;1.70;;;20.60;65.30;;;;;;4773839;30;20138;-79
2022/06/29 06:30:46;;;;;;;3.63;2.00;;;20.60;65.20;;;;;;4758557;30;20429;-79
2022/06/29 06:33:12;;;;;;;6.30;2.38;;;20.70;64.70;;;;;;4774128;30;20056;-79
2022/06/29 06:35:37;;;;;;;3.33;1.60;;;20.70;64.60;;;;;;4758651;30;20277;-81
2022/06/29 06:38:03;;;;;;;3.78;1.75;;;20.70;64.50;;;;;;4758452;30;20348;-78
2022/06/29 06:43:13;;;;;;;4.45;1.67;;;20.80;64.20;;;;;;4774604;30;20056;-72
2022/06/29 06:45:39;;;;;;;5.57;1.80;;;20.80;64.50;;;;;;4773474;30;20368;-73
2022/06/29 06:48:05;;;;;;;2.22;1.20;;;20.80;64.90;;;;;;4774003;30;20367;-73
2022/06/29 06:50:31;;;;;;;2.05;1.13;;;20.80;65.10;;;;;;4774219;30;20048;-73
2022/06/29 06:52:56;;;;;;;3.00;1.15;;;20.90;65.40;;;;;;4774167;30;20043;-74
2022/06/29 06:55:22;;;;;;;4.10;1.42;;;20.90;65.50;;;;;;4773972;30;20047;-73
2022/06/29 06:57:48;;;;;;;2.05;1.05;;;21.00;65.80;;;;;;4773349;30;20047;-73
2022/06/29 07:00:14;;;;;;;1.95;0.98;;;21.00;65.90;;;;;;4774121;30;20056;-73
2022/06/29 07:02:40;;;;;;;4.43;1.00;;;21.00;65.90;;;;;;4773822;30;20138;-74
2022/06/29 07:05:06;;;;;;;2.05;0.90;;;21.10;66.10;;;;;;4773880;30;20056;-73
2022/06/29 07:07:32;;;;;;;2.22;1.25;;;21.10;66.10;;;;;;4773770;30;20143;-73
2022/06/29 07:09:58;;;;;;;2.80;0.82;;;21.10;66.20;;;;;;4773683;30;20138;-73
2022/06/29 07:12:24;;;;;;;3.35;1.02;;;21.10;66.20;;;;;;4773425;30;20143;-73
2022/06/29 07:14:49;;;;;;;0.80;0.60;;;21.20;66.30;;;;;;4774086;30;20066;-73
2022/06/29 07:17:15;;;;;;;3.10;0.80;;;21.20;66.40;;;;;;4773431;30;20468;-73
2022/06/29 07:19:41;;;;;;;2.47;0.80;;;21.20;66.40;;;;;;4772559;30;20063;-73
2022/06/29 07:22:07;;;;;;;4.32;0.90;;;21.20;66.30;;;;;;4773579;30;20144;-72
2022/06/29 07:24:32;;;;;;;1.95;0.98;;;21.30;66.30;;;;;;4773636;30;20055;-73
2022/06/29 07:26:58;;;;;;;2.92;1.00;;;21.30;66.50;;;;;;4772236;30;20048;-73
2022/06/29 07:29:24;;;;;;;1.52;0.90;;;21.30;66.40;;;;;;4773312;30;20147;-73
2022/06/29 07:31:50;;;;;;;2.22;0.70;;;21.30;66.50;;;;;;4773395;30;20048;-73
2022/06/29 07:34:16;;;;;;;2.05;0.90;;;21.30;66.50;;;;;;4773340;30;20094;-76
2022/06/29 07:36:42;;;;;;;2.25;1.25;;;21.30;65.60;;;;;;4756812;30;20163;-75
2022/06/29 07:39:08;;;;;;;1.38;0.95;;;21.40;64.50;;;;;;4773058;30;20051;-75
2022/06/29 07:41:36;;;;;;;3.03;1.30;;;21.40;64.00;;;;;;4773777;30;20349;-73
2022/06/29 07:44:05;;;;;;;1.55;0.77;;;21.40;64.10;;;;;;4773263;30;20131;-73
2022/06/29 07:46:31;;;;;;;3.03;1.10;;;21.40;64.70;;;;;;4772449;30;20467;-75
2022/06/29 07:48:57;;;;;;;3.08;0.90;;;21.40;65.20;;;;;;4773185;30;20052;-73
2022/06/29 07:51:23;;;;;;;1.70;0.90;;;21.40;65.40;;;;;;4773613;30;20055;-74
2022/06/29 07:53:48;;;;;;;3.55;0.73;;;21.50;65.50;;;;;;4772791;30;20048;-73
2022/06/29 07:56:14;;;;;;;2.67;1.15;;;21.50;65.60;;;;;;4772724;30;20065;-74
2022/06/29 07:58:42;;;;;;;2.33;0.80;;;21.50;65.60;;;;;;4772542;30;20420;-76
2022/06/29 08:01:10;;;;;;;3.85;1.40;;;21.50;65.70;;;;;;4773113;30;20752;-76
2022/06/29 08:03:36;;;;;;;1.55;0.70;;;21.50;65.70;;;;;;4773301;30;20440;-74
2022/06/29 08:06:02;;;;;;;2.75;0.80;;;21.60;65.90;;;;;;4773371;30;20060;-74
2022/06/29 08:08:28;;;;;;;2.92;0.80;;;21.60;65.90;;;;;;4772892;30;20098;-73
2022/06/29 08:10:53;;;;;;;2.05;0.70;;;21.60;65.90;;;;;;4772521;30;20051;-74
2022/06/29 08:13:21;;;;;;;1.48;0.57;;;21.70;66.00;;;;;;4772378;30;20057;-75
2022/06/29 08:15:47;;;;;;;2.97;0.65;;;21.70;66.10;;;;;;4772040;30;20059;-73
2022/06/29 08:18:14;;;;;;;2.58;0.95;;;21.70;66.10;;;;;;4772706;30;20044;-74
2022/06/29 08:20:39;;;;;;;2.00;0.60;;;21.70;66.10;;;;;;4771876;30;20075;-74
2022/06/29 08:23:06;;;;;;;1.42;0.63;;;21.70;66.20;;;;;;4772030;30;20078;-74
2022/06/29 08:25:32;;;;;;;1.25;0.85;;;21.70;66.20;;;;;;4772236;30;20057;-75
2022/06/29 08:27:58;;;;;;;1.48;0.75;;;21.80;66.30;;;;;;4772878;30;20479;-74
2022/06/29 08:30:23;;;;;;;1.95;0.80;;;21.80;66.40;;;;;;4772224;30;20062;-73
2022/06/29 08:32:50;;;;;;;1.77;0.70;;;21.80;66.40;;;;;;4771863;30;20051;-73
2022/06/29 08:35:17;;;;;;;1.63;0.75;;;21.80;66.40;;;;;;4772011;30;20120;-74
2022/06/29 08:37:44;;;;;;;3.28;0.75;;;21.80;66.40;;;;;;4772044;30;20048;-74
2022/06/29 08:40:15;;;;;;;1.45;0.60;;;21.80;66.40;;;;;;4772648;30;20169;-73
2022/06/29 08:42:41;;;;;;;1.23;0.70;;;21.80;66.50;;;;;;4756134;30;20059;-74
2022/06/29 08:45:09;;;;;;;2.10;0.70;;;21.80;66.50;;;;;;4771907;30;20325;-74
2022/06/29 08:47:35;;;;;;;1.23;0.60;;;21.90;66.60;;;;;;4771205;30;20058;-74
2022/06/29 08:50:09;;;;;;;1.63;0.60;;;21.90;66.60;;;;;;4772040;30;20043;-71
2022/06/29 08:52:35;;;;;;;2.15;0.70;;;21.90;66.40;;;;;;4771764;30;20055;-74
2022/06/29 08:55:03;;;;;;;0.90;0.65;;;21.90;66.60;;;;;;4771434;30;20056;-75
2022/06/29 08:57:29;;;;;;;2.10;0.68;;;21.90;66.70;;;;;;4771969;30;20464;-74
2022/06/29 08:59:56;;;;;;;2.10;0.70;;;21.90;66.80;;;;;;4772264;30;20056;-74
2022/06/29 09:02:22;;;;;;;2.25;0.75;;;21.90;66.80;;;;;;4770653;30;20059;-74
2022/06/29 09:04:49;;;;;;;1.05;0.80;;;21.90;66.70;;;;;;4771841;30;20474;-74
2022/06/29 09:07:15;;;;;;;1.00;0.70;;;21.90;66.70;;;;;;4771857;30;20135;-74
2022/06/29 09:10:17;;;;;;;0.90;0.55;;;21.90;66.70;;;;;;4771626;30;20374;-73
2022/06/29 09:12:52;;;;;;;1.10;0.63;;;22.00;67.00;;;;;;4761535;30;20059;-75
2022/06/29 09:15:29;;;;;;;1.17;0.70;;;22.00;66.90;;;;;;4772029;30;20434;-74
2022/06/29 09:17:55;;;;;;;3.88;0.60;;;22.00;66.90;;;;;;4771941;30;20075;-74
2022/06/29 09:20:20;;;;;;;1.52;0.70;;;22.00;66.80;;;;;;4771659;30;20071;-74
2022/06/29 09:22:52;;;;;;;1.17;0.55;;;22.00;66.90;;;;;;4771377;30;20079;-74
2022/06/29 09:25:26;;;;;;;1.02;0.65;;;22.00;66.80;;;;;;4771884;30;20058;-75
2022/06/29 09:27:55;;;;;;;2.05;0.90;;;22.00;66.90;;;;;;4771554;30;20051;-74
2022/06/29 09:30:29;;;;;;;0.73;0.63;;;22.00;66.90;;;;;;4771690;30;20052;-74
2022/06/29 09:33:07;;;;;;;1.73;0.60;;;22.10;67.00;;;;;;4771620;30;20047;-76
2022/06/29 09:35:35;;;;;;;1.48;0.73;;;22.10;67.10;;;;;;4771234;30;20063;-74
2022/06/29 09:38:17;;;;;;;1.02;0.60;;;22.10;66.90;;;;;;4771408;30;20051;-74
2022/06/29 09:41:21;;;;;;;1.65;0.60;;;22.10;67.00;;;;;;4771485;30;20048;-74
2022/06/29 09:43:47;;;;;;;;;;;22.10;67.00;;;;;;4700520;30;20065;-74
2022/06/29 09:46:14;;;;;;;2.20;0.70;;;22.10;67.10;;;;;;4699588;30;20248;-75
2022/06/29 09:48:41;;;;;;;1.45;0.70;;;22.10;67.00;;;;;;4730921;30;20056;-74
2022/06/29 09:53:59;;;;;;;1.40;0.60;;;22.10;67.00;;;;;;4771661;30;20067;-74
2022/06/29 09:56:28;;;;;;;0.82;0.52;;;22.10;66.90;;;;;;4772394;30;20105;-74
2022/06/29 09:58:57;;;;;;;0.90;0.60;;;22.10;66.90;;;;;;4773151;30;20070;-74
2022/06/29 10:04:10;;;;;;;1.58;0.52;;;22.10;67.00;;;;;;4774679;30;20055;-74
2022/06/29 10:06:36;;;;;;;1.30;0.60;;;22.10;67.00;;;;;;4774901;30;20048;-74
2022/06/29 10:09:03;;;;;;;1.20;0.50;;;22.10;67.00;;;;;;4774646;30;20067;-74
2022/06/29 10:14:40;;;;;;;0.95;0.45;;;22.20;67.20;;;;;;4775015;30;20134;-75
2022/06/29 10:17:21;;;;;;;1.60;0.60;;;22.20;67.20;;;;;;4775344;30;20056;-76
2022/06/29 10:20:09;;;;;;;1.13;0.68;;;22.20;67.20;;;;;;4773785;30;20135;-75
2022/06/29 10:22:35;;;;;;;1.10;0.50;;;22.20;67.20;;;;;;4774274;30;20082;-74
2022/06/29 10:25:06;;;;;;;0.82;0.52;;;22.20;67.20;;;;;;4774371;30;20127;-74
2022/06/29 10:27:32;;;;;;;1.38;0.55;;;22.20;67.20;;;;;;4774274;30;20438;-74
2022/06/29 10:30:24;;;;;;;1.05;0.57;;;22.20;67.20;;;;;;4773463;30;20499;-74
2022/06/29 10:32:50;;;;;;;1.30;0.40;;;22.20;67.20;;;;;;4773643;30;20055;-73
2022/06/29 10:35:18;;;;;;;0.95;0.60;;;22.20;67.10;;;;;;4774442;30;20054;-74
2022/06/29 10:37:51;;;;;;;1.08;0.60;;;22.20;67.10;;;;;;4773508;30;20047;-75
2022/06/29 10:40:24;;;;;;;2.47;0.80;;;22.30;67.10;;;;;;4774902;30;20047;-74
2022/06/29 10:43:09;;;;;;;0.95;0.68;;;22.30;67.10;;;;;;4774097;30;20052;-75
2022/06/29 10:45:41;;;;;;;2.05;0.50;;;22.20;67.00;;;;;;4773554;30;20128;-74
2022/06/29 10:48:08;;;;;;;0.80;0.43;;;22.20;67.00;;;;;;4781065;30;20051;-75
2022/06/29 10:50:36;;;;;;;0.70;0.70;;;22.20;67.00;;;;;;4778637;30;20044;-74
2022/06/29 10:53:11;;;;;;;0.85;0.70;;;22.30;67.10;;;;;;4784044;30;20130;-74
2022/06/29 10:55:46;;;;;;;1.45;0.52;;;22.30;67.10;;;;;;4792213;30;20139;-74
2022/06/29 10:58:12;;;;;;;3.22;0.70;;;22.30;67.10;;;;;;4792153;30;20082;-74
2022/06/29 11:00:42;;;;;;;1.45;0.55;;;22.30;67.00;;;;;;4792123;30;20051;-75
2022/06/29 11:03:12;;;;;;;0.98;0.60;;;22.30;67.00;;;;;;4776627;30;20113;-74
2022/06/29 11:13:56;;;;;;;0.95;0.55;;;22.30;66.70;;;;;;4773767;30;20094;-75
2022/06/29 11:16:34;;;;;;;2.25;0.77;;;22.30;66.80;;;;;;4773528;30;20091;-74
2022/06/29 11:19:00;;;;;;;1.25;0.60;;;22.30;66.70;;;;;;4773709;30;20373;-74
2022/06/29 11:21:28;;;;;;;0.90;0.60;;;22.30;66.80;;;;;;4773675;30;20062;-75
2022/06/29 11:24:02;;;;;;;0.70;0.55;;;22.30;66.70;;;;;;4773442;30;20126;-74
2022/06/29 11:26:29;;;;;;;0.65;0.60;;;22.30;66.70;;;;;;4773663;30;20380;-74
2022/06/29 11:28:57;;;;;;;1.92;1.13;;;22.30;66.70;;;;;;4773052;30;20513;-74
2022/06/29 11:31:23;;;;;;;4.10;1.20;;;22.30;66.70;;;;;;4757278;30;20062;-74
2022/06/29 11:33:52;;;;;;;1.27;0.60;;;22.30;66.70;;;;;;4773015;30;20127;-75
2022/06/29 11:36:30;;;;;;;1.80;1.10;;;22.30;66.60;;;;;;4757546;30;20461;-73
2022/06/29 11:39:06;;;;;;;1.27;0.70;;;22.30;66.60;;;;;;4773120;30;20523;-74
2022/06/29 11:44:27;;;;;;;0.82;0.70;;;22.30;66.70;;;;;;4772651;30;20395;-73
2022/06/29 11:46:53;;;;;;;1.10;0.70;;;22.30;66.60;;;;;;4773696;30;20063;-73
2022/06/29 11:49:36;;;;;;;1.55;0.93;;;22.30;66.70;;;;;;4773214;30;20059;-75
2022/06/29 11:52:08;;;;;;;2.53;0.70;;;22.30;66.70;;;;;;4772660;30;20459;-75
2022/06/29 11:54:43;;;;;;;0.90;0.70;;;22.40;65.70;;;;;;4773313;30;20364;-75
2022/06/29 11:57:18;;;;;;;1.70;0.82;;;22.40;64.70;;;;;;4756735;30;20376;-74
2022/06/29 11:59:46;;;;;;;1.70;1.02;;;22.50;60.60;;;;;;4773006;30;20089;-74
2022/06/29 12:02:16;;;;;;;1.17;0.60;;;22.50;61.10;;;;;;4772491;30;20055;-76
2022/06/29 12:04:46;;;;;;;2.00;0.70;;;22.40;62.10;;;;;;4757311;30;20055;-77
2022/06/29 12:07:16;;;;;;;1.60;0.70;;;22.40;63.00;;;;;;4756934;30;20060;-75
2022/06/29 12:09:42;;;;;;;1.70;0.90;;;22.40;63.50;;;;;;4772589;30;20467;-74
2022/06/29 12:12:10;;;;;;;2.03;0.90;;;22.40;63.80;;;;;;4772930;30;20056;-76
2022/06/29 12:14:37;;;;;;;1.48;0.68;;;22.40;63.90;;;;;;4771927;30;20113;-73
2022/06/29 12:17:03;;;;;;;1.38;0.73;;;22.40;64.10;;;;;;4772437;30;20056;-73
2022/06/29 12:19:29;;;;;;;2.05;0.95;;;22.40;64.30;;;;;;4781057;30;20095;-74
2022/06/29 12:21:57;;;;;;;1.77;0.95;;;22.40;64.40;;;;;;4779496;30;20148;-74
2022/06/29 12:24:24;;;;;;;2.63;1.00;;;22.40;64.50;;;;;;4772447;30;20047;-74
2022/06/29 12:26:50;;;;;;;2.17;0.88;;;22.40;64.60;;;;;;4785006;30;20055;-76
2022/06/29 12:29:16;;;;;;;3.55;1.08;;;22.40;64.60;;;;;;4777075;30;20064;-76
2022/06/29 12:31:43;;;;;;;3.80;1.10;;;22.40;63.10;;;;;;4775849;30;20060;-74
2022/06/29 12:34:10;;;;;;;3.45;1.05;;;22.40;62.80;;;;;;4775344;30;20047;-71
2022/06/29 12:36:36;;;;;;;1.00;0.70;;;22.40;63.40;;;;;;4772298;30;20056;-74
2022/06/29 12:39:03;;;;;;;1.17;0.73;;;22.40;63.90;;;;;;4772490;30;20059;-75
2022/06/29 12:41:28;;;;;;;3.63;1.10;;;22.40;64.30;;;;;;4771971;30;20058;-75
2022/06/29 12:43:54;;;;;;;2.42;1.10;;;22.40;64.50;;;;;;4772593;30;20052;-75
2022/06/29 12:46:20;;;;;;;1.77;1.15;;;22.40;64.60;;;;;;4781830;30;20047;-75
2022/06/29 12:48:46;;;;;;;4.07;1.05;;;22.40;64.70;;;;;;4790091;30;20051;-76
2022/06/29 12:51:12;;;;;;;8.65;1.58;;;22.40;64.30;;;;;;4790233;30;20055;-76
2022/06/29 12:53:38;;;;;;;3.75;1.23;;;22.50;61.10;;;;;;4789499;30;20467;-76
2022/06/29 12:56:06;;;;;;;3.78;1.17;;;22.50;60.20;;;;;;4786845;30;20058;-75
2022/06/29 12:58:33;;;;;;;3.58;1.10;;;22.50;61.10;;;;;;4783329;30;20051;-75
2022/06/29 13:01:04;;;;;;;4.28;1.27;;;22.50;61.60;;;;;;4774381;30;20074;-77
2022/06/29 13:03:31;;;;;;;4.18;1.25;;;22.50;60.80;;;;;;4767263;30;20044;-71
2022/06/29 13:05:56;;;;;;;7.07;1.30;;;22.50;60.70;;;;;;4771991;30;20368;-73
2022/06/29 13:08:22;;;;;;;9.15;2.00;;;22.50;61.40;;;;;;4772182;30;20055;-75
2022/06/29 13:10:48;;;;;;;7.07;1.50;;;22.50;62.00;;;;;;4771955;30;20056;-74
2022/06/29 13:13:14;;;;;;;16.23;3.13;;;22.60;62.60;;;;;;4771579;30;20051;-73
2022/06/29 13:15:39;;;;;;;3.58;1.10;;;22.60;63.30;;;;;;4756239;30;20522;-75
2022/06/29 13:18:05;;;;;;;5.05;1.98;;;22.50;63.20;;;;;;4772379;30;20135;-75
2022/06/29 13:20:31;;;;;;;7.80;1.42;;;22.60;63.50;;;;;;4771954;30;20106;-73
2022/06/29 13:22:57;;;;;;;11.73;2.03;;;22.60;63.70;;;;;;4771728;30;20476;-73
2022/06/29 13:25:22;;;;;;;6.88;1.27;;;22.60;63.90;;;;;;4771517;30;20055;-73
2022/06/29 13:27:48;;;;;;;11.27;2.05;;;22.60;64.00;;;;;;4771626;30;20051;-73
2022/06/29 13:30:14;;;;;;;13.55;1.95;;;22.60;64.30;;;;;;4771652;30;20451;-75
2022/06/29 13:32:40;;;;;;;9.07;2.22;;;22.60;63.40;;;;;;4771891;30;20066;-75
2022/06/29 13:35:06;;;;;;;9.77;1.92;;;22.70;61.20;;;;;;4775188;30;20138;-75
2022/06/29 13:37:33;;;;;;;11.20;2.03;;;22.70;60.90;;;;;;4775070;30;20062;-75
2022/06/29 13:39:58;;;;;;;11.25;2.00;;;22.70;60.90;;;;;;4775486;30;20452;-72
2022/06/29 13:42:24;;;;;;;7.35;1.20;;;22.80;61.20;;;;;;4774839;30;20079;-72
2022/06/29 13:44:50;;;;;;;8.60;1.52;;;22.80;60.30;;;;;;4774641;30;20140;-77
2022/06/29 13:47:16;;;;;;;6.22;1.77;;;22.80;59.80;;;;;;4775033;30;20067;-73
2022/06/29 13:49:41;;;;;;;7.22;1.50;;;22.80;60.20;;;;;;4774527;30;20087;-77
2022/06/29 13:52:07;;;;;;;11.63;1.98;;;22.70;60.90;;;;;;4774754;30;20093;-73
2022/06/29 13:54:35;;;;;;;9.93;1.88;;;22.80;61.60;;;;;;4775111;30;20063;-73
2022/06/29 13:57:01;;;;;;;7.93;1.70;;;22.70;62.00;;;;;;4774542;30;20535;-76
2022/06/29 13:59:27;;;;;;;8.20;1.52;;;22.70;62.10;;;;;;4774866;30;20081;-77
2022/06/29 14:01:53;;;;;;;7.28;1.63;;;22.70;62.50;;;;;;4774133;30;20127;-76
2022/06/29 14:04:19;;;;;;;8.27;1.83;;;22.70;62.70;;;;;;4774624;30;20048;-76
2022/06/29 14:06:45;;;;;;;10.93;1.60;;;22.70;62.80;;;;;;4775066;30;20052;-76
2022/06/29 14:09:12;;;;;;;7.63;1.80;;;22.70;63.00;;;;;;4759092;30;20444;-74
2022/06/29 14:11:38;;;;;;;14.00;2.60;;;22.70;63.10;;;;;;4774974;30;20055;-75
2022/06/29 14:14:04;;;;;;;12.00;1.55;;;22.70;63.10;;;;;;4774711;30;20168;-76
2022/06/29 14:16:31;;;;;;;10.00;2.28;;;22.70;61.00;;;;;;4774793;30;20058;-76
2022/06/29 14:18:57;;;;;;;9.50;1.92;;;22.70;60.80;;;;;;4756735;30;20345;-82
2022/06/29 14:21:23;;;;;;;10.98;2.30;;;22.80;60.60;;;;;;4755259;30;20052;-75
2022/06/29 14:23:49;;;;;;;11.30;2.42;;;22.80;60.40;;;;;;4754730;30;20052;-73
2022/06/29 14:26:16;;;;;;;12.32;1.85;;;22.80;60.00;;;;;;4756480;30;20080;-74
2022/06/29 14:28:41;;;;;;;9.90;1.95;;;22.90;60.00;;;;;;4755915;30;20052;-74
2022/06/29 14:31:08;;;;;;;6.82;1.75;;;22.90;58.70;;;;;;4755612;30;20055;-76
2022/06/29 14:33:34;;;;;;;9.63;1.75;;;22.90;58.70;;;;;;4756480;30;20584;-75
2022/06/29 14:36:00;;;;;;;13.50;2.08;;;23.00;59.80;;;;;;4755827;30;20052;-74
2022/06/29 14:38:26;;;;;;;4.68;1.77;;;22.90;59.80;;;;;;4756706;30;20048;-72
2022/06/29 14:40:52;;;;;;;9.35;1.98;;;23.00;59.60;;;;;;4756799;30;20083;-71
2022/06/29 14:43:18;;;;;;;13.90;2.55;;;22.90;60.20;;;;;;4756421;30;20435;-72
2022/06/29 14:45:43;;;;;;;9.30;1.88;;;22.90;60.80;;;;;;4755197;30;20060;-72
2022/06/29 14:48:09;;;;;;;9.50;2.08;;;22.90;61.90;;;;;;4756163;30;20142;-73
2022/06/29 14:50:36;;;;;;;5.63;1.95;;;23.00;62.90;;;;;;4756401;30;20153;-73
2022/06/29 14:53:02;;;;;;;4.32;1.83;;;23.00;64.20;;;;;;4756452;30;20044;-76
2022/06/29 14:55:28;;;;;;;9.68;2.55;;;23.00;65.10;;;;;;4756163;30;20060;-75
2022/06/29 14:57:54;;;;;;;16.77;3.15;;;23.00;65.20;;;;;;4756049;30;20055;-73
2022/06/29 15:00:22;;;;;;;10.77;2.17;;;23.00;65.60;;;;;;4755063;30;20051;-79
2022/06/29 15:02:49;;;;;;;14.98;3.65;;;23.10;65.50;;;;;;4755791;30;20075;-80
2022/06/29 15:05:15;;;;;;;20.23;3.35;;;23.10;66.00;;;;;;4761717;30;20129;-76
2022/06/29 15:07:41;;;;;;;12.10;2.42;;;23.10;66.70;;;;;;4766399;30;20461;-76
2022/06/29 15:10:07;;;;;;;13.63;3.03;;;23.10;67.60;;;;;;4755887;30;20446;-77
2022/06/29 15:12:33;;;;;;;15.27;3.78;;;23.10;67.30;;;;;;4755965;30;20561;-78
2022/06/29 15:14:59;;;;;;;18.92;3.80;;;23.20;66.80;;;;;;4755370;30;20060;-77
2022/06/29 15:17:24;;;;;;;10.63;2.78;;;23.20;67.00;;;;;;4755143;30;20461;-78
2022/06/29 15:19:51;;;;;;;16.23;3.13;;;23.20;67.50;;;;;;4762083;30;20067;-76
2022/06/29 15:22:16;;;;;;;11.40;2.90;;;23.20;67.60;;;;;;4773584;30;20124;-80
2022/06/29 15:24:42;;;;;;;12.13;2.88;;;23.20;66.70;;;;;;4773357;30;20056;-77
2022/06/29 15:27:08;;;;;;;7.13;2.67;;;23.20;65.40;;;;;;4773574;30;20056;-78
2022/06/29 15:29:44;;;;;;;9.20;3.10;;;23.20;64.90;;;;;;4757695;30;20150;-81
2022/06/29 15:32:12;;;;;;;8.55;2.45;;;23.20;64.60;;;;;;4757593;30;20047;-79
2022/06/29 15:40:09;;;;;;;7.65;2.63;;;23.20;65.10;;;;;;4791398;30;20055;-75
2022/06/29 15:42:34;;;;;;;8.82;2.33;;;23.20;64.90;;;;;;4791294;30;20120;-80
2022/06/29 15:45:00;;;;;;;7.25;2.38;;;23.20;63.30;;;;;;4763546;30;20055;-78
2022/06/29 15:47:26;;;;;;;9.57;2.42;;;23.20;63.70;;;;;;4757378;30;20133;-78
2022/06/29 15:49:51;;;;;;;6.40;2.15;;;23.20;62.80;;;;;;4772653;30;20110;-76
2022/06/29 15:52:17;;;;;;;7.55;2.30;;;23.20;62.40;;;;;;4772795;30;20063;-78
2022/06/29 15:57:27;;;;;;;4.43;2.30;;;23.20;61.70;;;;;;4772978;30;20484;-79
2022/06/29 15:59:53;;;;;;;4.35;2.08;;;23.20;61.20;;;;;;4772864;30;20059;-75
2022/06/29 16:02:19;;;;;;;4.75;2.30;;;23.20;62.30;;;;;;4756679;30;20060;-77
2022/06/29 16:04:44;;;;;;;5.22;2.42;;;23.20;62.60;;;;;;4772697;30;20069;-77
2022/06/29 16:07:10;;;;;;;4.15;2.00;;;23.30;62.40;;;;;;4772759;30;20039;-77
2022/06/29 16:09:36;;;;;;;3.00;1.88;;;23.20;62.20;;;;;;4772687;30;20059;-77
2022/06/29 16:12:10;;;;;;;3.13;1.92;;;23.20;61.90;;;;;;4772658;30;20060;-77
2022/06/29 16:14:41;;;;;;;3.38;2.42;;;23.30;61.90;;;;;;4772663;30;20418;-76
2022/06/29 16:17:07;;;;;;;3.90;1.85;;;23.30;62.80;;;;;;4772478;30;20096;-76
2022/06/29 16:19:34;;;;;;;5.50;1.98;;;23.20;63.50;;;;;;4772107;30;20071;-76
2022/06/29 16:22:00;;;;;;;12.52;3.17;;;23.30;64.00;;;;;;4772540;30;20056;-78
2022/06/29 16:24:26;;;;;;;2.95;1.90;;;23.30;63.30;;;;;;4756892;30;20054;-75
2022/06/29 16:26:53;;;;;;;4.63;1.90;;;23.30;62.40;;;;;;4771364;30;20063;-75
2022/06/29 16:29:19;;;;;;;3.00;1.63;;;23.30;62.50;;;;;;4772048;30;20047;-76
2022/06/29 16:31:44;;;;;;;5.90;1.95;;;23.30;63.30;;;;;;4772351;30;20051;-75
2022/06/29 16:34:10;;;;;;;5.50;1.95;;;23.30;64.00;;;;;;4772670;30;20056;-75
2022/06/29 16:36:37;;;;;;;6.57;2.17;;;23.30;64.40;;;;;;4772853;30;20464;-76
2022/06/29 16:39:04;;;;;;;3.60;2.10;;;23.30;64.60;;;;;;4772350;30;20063;-75
2022/06/29 16:41:30;;;;;;;7.45;2.05;;;23.30;64.80;;;;;;4772345;30;20051;-75
2022/06/29 16:43:56;;;;;;;2.72;1.95;;;23.30;64.90;;;;;;4772611;30;20051;-75
2022/06/29 16:46:22;;;;;;;4.90;1.70;;;23.30;64.90;;;;;;4772700;30;20117;-75
2022/06/29 16:48:48;;;;;;;3.63;1.80;;;23.30;65.10;;;;;;4772052;30;20078;-75
2022/06/29 16:51:14;;;;;;;4.03;2.20;;;23.20;65.10;;;;;;4771932;30;20059;-75
2022/06/29 16:53:41;;;;;;;4.35;1.98;;;23.30;65.30;;;;;;4772079;30;20057;-75
2022/06/29 16:56:07;;;;;;;3.17;2.00;;;23.20;65.30;;;;;;4771896;30;20120;-75
2022/06/29 16:58:32;;;;;;;3.38;2.17;;;23.30;65.40;;;;;;4772508;30;20059;-75
2022/06/29 17:00:58;;;;;;;4.18;1.88;;;23.30;65.50;;;;;;4772407;30;20051;-75
2022/06/29 17:03:24;;;;;;;2.40;1.80;;;23.30;65.50;;;;;;4772671;30;20051;-75
2022/06/29 17:05:50;;;;;;;4.28;1.73;;;23.30;65.60;;;;;;4771667;30;20483;-75
2022/06/29 17:08:15;;;;;;;2.58;1.65;;;23.30;65.60;;;;;;4771562;30;20101;-75
2022/06/29 17:10:41;;;;;;;2.92;1.90;;;23.30;65.60;;;;;;4772110;30;20039;-75
2022/06/29 17:13:07;;;;;;;3.42;2.00;;;23.30;66.30;;;;;;4771816;30;20055;-76
2022/06/29 17:15:33;;;;;;;5.18;2.20;;;23.40;65.80;;;;;;4771904;30;20052;-79
2022/06/29 17:17:58;;;;;;;3.10;1.52;;;23.40;65.80;;;;;;4772246;30;20070;-79
2022/06/29 19:32:02;;;;;;;7.20;4.57;;;23.00;70.40;;;;;;5345070;24;20052;-77
2022/06/29 19:34:28;;;;;;;6.93;5.55;;;23.10;70.50;;;;;;4722555;30;20048;-78
2022/06/29 19:36:54;;;;;;;7.32;6.40;;;23.00;71.00;;;;;;4737727;30;20503;-78
2022/06/29 19:39:19;;;;;;;7.97;5.25;;;23.10;71.40;;;;;;4722550;30;20553;-74
2022/06/29 19:41:45;;;;;;;4.88;4.32;;;23.00;71.40;;;;;;4738125;30;20053;-73
2022/06/29 19:44:11;;;;;;;4.63;3.78;;;23.00;71.40;;;;;;4737923;30;20060;-73
2022/06/29 19:46:37;;;;;;;7.25;3.75;;;23.00;71.30;;;;;;4737070;30;20084;-73
2022/06/29 19:49:05;;;;;;;4.57;3.47;;;23.00;70.90;;;;;;4753672;30;20070;-78